Time;durP1;ratioP1;P1;durP2;ratioP2;P2;SDS_P1;SDS_P2;PMS_P1;PMS_P2;Temp;Humidity;BMP_temperature;BMP_pressure;BME280_temperature;BME280_humidity;BME280_pressure;Samples;Min_cycle;Max_cycle;Signal;HPM_P1;HPM_P2
2022/06/05 00:01:33;;;;;;;17.95;10.73;;;;;;;14.89;57.00;99414.09;5088469;27;20046;-69
2022/06/05 00:04:16;;;;;;;19.98;9.80;;;;;;;14.78;56.79;99408.88;5097571;27;20095;-71
2022/06/05 00:07:17;;;;;;;18.27;10.27;;;;;;;14.75;56.86;99413.69;5064131;27;20059;-72
2022/06/05 00:10:08;;;;;;;20.08;10.23;;;;;;;14.68;58.01;99404.47;5042386;28;20044;-65
2022/06/05 00:12:57;;;;;;;13.68;8.60;;;;;;;14.67;56.88;99400.13;5053918;28;20052;-67
2022/06/05 00:15:22;;;;;;;14.70;9.50;;;;;;;14.52;57.61;99400.53;5039811;28;20040;-70
2022/06/05 00:17:47;;;;;;;20.90;10.60;;;;;;;14.45;58.20;99401.22;5055940;28;20038;-68
2022/06/05 00:20:12;;;;;;;24.10;10.93;;;;;;;14.40;58.70;99392.78;5041809;28;20043;-69
2022/06/05 00:22:38;;;;;;;18.73;10.38;;;;;;;14.38;58.51;99390.19;5056836;28;20164;-68
2022/06/05 00:25:03;;;;;;;17.20;10.27;;;;;;;14.28;58.69;99386.66;5038934;28;20048;-66
2022/06/05 00:27:48;;;;;;;17.95;9.43;;;;;;;14.23;59.67;99377.31;5055186;28;20044;-67
2022/06/05 00:30:30;;;;;;;23.35;10.43;;;;;;;14.26;59.75;99372.53;5056151;28;20059;-67
2022/06/05 00:32:59;;;;;;;16.92;9.93;;;;;;;14.24;58.86;99370.97;5052308;28;20458;-72
2022/06/05 00:35:30;;;;;;;15.50;10.50;;;;;;;14.26;58.91;99369.00;5051860;28;20123;-72
2022/06/05 00:38:12;;;;;;;15.10;8.93;;;;;;;14.27;60.02;99371.56;5048415;28;20173;-72
2022/06/05 00:41:05;;;;;;;21.13;11.15;;;;;;;14.28;59.82;99373.25;5071857;27;20042;-74
2022/06/05 00:43:30;;;;;;;17.43;9.77;;;;;;;14.28;59.48;99364.34;5079706;27;20455;-68
2022/06/05 00:45:57;;;;;;;19.77;9.25;;;;;;;14.31;58.91;99364.09;5116211;27;20348;-71
2022/06/05 00:48:22;;;;;;;15.85;9.55;;;;;;;14.33;59.11;99354.06;5116421;27;20385;-72
2022/06/05 00:50:48;;;;;;;17.80;10.07;;;;;;;14.37;58.94;99358.16;5097295;27;20400;-72
2022/06/05 00:53:12;;;;;;;18.02;10.85;;;;;;;14.38;59.29;99351.78;5115828;27;20488;-71
2022/06/05 00:55:43;;;;;;;20.67;9.50;;;;;;;14.42;59.23;99356.78;5115722;27;20053;-72
2022/06/05 00:58:09;;;;;;;20.83;9.55;;;;;;;14.45;59.02;99363.69;5115254;27;20042;-68
2022/06/05 01:00:38;;;;;;;20.02;10.20;;;;;;;14.45;59.00;99356.47;5114952;27;20042;-69
2022/06/05 01:03:06;;;;;;;15.95;9.68;;;;;;;14.44;59.02;99348.59;5119659;27;20520;-67
2022/06/05 01:05:31;;;;;;;19.63;10.00;;;;;;;14.39;59.47;99345.44;5119580;27;20488;-69
2022/06/05 01:07:57;;;;;;;22.00;9.75;;;;;;;14.35;59.41;99347.56;5118227;27;20087;-72
2022/06/05 01:10:35;;;;;;;16.00;9.15;;;;;;;14.38;59.72;99341.91;5087642;27;20047;-72
2022/06/05 01:13:03;;;;;;;17.95;10.02;;;;;;;14.42;59.57;99342.53;5115304;27;20143;-71
2022/06/05 01:16:00;;;;;;;21.48;9.73;;;;;;;14.47;59.30;99338.41;5084694;27;20089;-69
2022/06/05 01:19:30;;;;;;;14.63;8.73;;;;;;;14.50;59.29;99343.50;5100557;27;20054;-72
2022/06/05 01:22:26;;;;;;;21.70;9.80;;;;;;;14.47;59.77;99348.28;5016714;28;20040;-73
2022/06/05 01:25:09;;;;;;;17.58;9.40;;;;;;;14.35;60.01;99344.03;5014715;28;20047;-73
2022/06/05 01:27:39;;;;;;;17.50;9.20;;;;;;;14.33;60.28;99351.38;5037312;28;20048;-71
2022/06/05 01:30:13;;;;;;;19.80;9.75;;;;;;;14.30;59.77;99340.94;5027153;28;20527;-72
2022/06/05 01:32:43;;;;;;;15.57;9.07;;;;;;;14.26;60.43;99339.50;4994914;28;20551;-72
2022/06/05 01:35:24;;;;;;;18.90;9.57;;;;;;;14.25;60.28;99337.81;5038072;28;20048;-71
2022/06/05 01:37:54;;;;;;;20.02;9.73;;;;;;;14.23;61.10;99339.78;5034608;28;20144;-71
2022/06/05 01:40:32;;;;;;;17.90;9.57;;;;;;;14.27;61.11;99343.88;5033297;28;20164;-71
2022/06/05 01:43:05;;;;;;;13.70;9.32;;;;;;;14.22;61.61;99346.97;5013638;28;20079;-71
2022/06/05 01:46:16;;;;;;;15.27;9.70;;;;;;;14.24;61.21;99338.78;5033862;28;20036;-72
2022/06/05 01:48:51;;;;;;;15.32;8.40;;;;;;;14.22;61.41;99340.78;4956356;28;20165;-72
2022/06/05 01:51:54;;;;;;;16.00;9.88;;;;;;;14.25;61.65;99333.28;4958985;28;20416;-72
2022/06/05 01:54:28;;;;;;;16.35;8.63;;;;;;;14.20;61.39;99324.00;4972208;28;20061;-72
2022/06/05 01:56:57;;;;;;;15.23;9.30;;;;;;;14.18;62.01;99324.97;4994709;28;20041;-72
2022/06/05 01:59:26;;;;;;;19.40;8.95;;;;;;;14.17;61.87;99336.69;4995114;28;20091;-73
2022/06/05 02:01:57;;;;;;;20.40;9.10;;;;;;;14.25;61.92;99324.41;4995998;28;20049;-74
2022/06/05 02:04:46;;;;;;;18.60;9.60;;;;;;;14.33;61.60;99319.22;4978223;28;20042;-72
2022/06/05 02:07:17;;;;;;;16.10;9.52;;;;;;;14.29;60.92;99323.16;4983158;28;20030;-73
2022/06/05 02:10:04;;;;;;;15.77;8.27;;;;;;;14.29;61.95;99318.63;4985622;28;20064;-73
2022/06/05 02:12:30;;;;;;;13.75;8.70;;;;;;;14.30;60.95;99323.00;4982996;28;20132;-74
2022/06/05 02:14:56;;;;;;;18.60;8.60;;;;;;;14.40;59.75;99328.41;4964967;28;20054;-74
2022/06/05 02:17:20;;;;;;;19.08;11.43;;;;;;;14.42;59.49;99313.03;4986225;28;20462;-74
2022/06/05 02:19:45;;;;;;;18.75;8.63;;;;;;;14.45;59.54;99310.03;4987016;28;20415;-71
2022/06/05 02:22:23;;;;;;;15.35;9.50;;;;;;;14.52;58.99;99309.34;4989002;28;20041;-70
2022/06/05 02:24:48;;;;;;;17.23;8.82;;;;;;;14.56;59.13;99303.69;5050138;27;20047;-70
2022/06/05 02:27:19;;;;;;;12.43;9.20;;;;;;;14.64;59.18;99307.34;5078905;27;20042;-70
2022/06/05 02:29:44;;;;;;;13.77;7.97;;;;;;;14.75;58.84;99301.81;5098952;27;20099;-69
2022/06/05 02:32:32;;;;;;;14.18;8.65;;;;;;;14.92;58.61;99300.22;5098849;27;20043;-69
2022/06/05 02:35:22;;;;;;;11.90;8.20;;;;;;;15.00;57.96;99307.56;5117822;27;20038;-69
2022/06/05 02:37:53;;;;;;;17.35;8.77;;;;;;;15.00;58.05;99307.56;5098448;27;20095;-71
2022/06/05 02:40:39;;;;;;;10.60;6.85;;;;;;;15.06;57.60;99302.44;5072403;27;20553;-69
2022/06/05 02:43:16;;;;;;;17.00;8.18;;;;;;;15.14;56.84;99301.69;5093961;27;20516;-67
2022/06/05 02:46:23;;;;;;;13.38;7.90;;;;;;;15.24;56.51;99306.03;5062677;27;20050;-68
2022/06/05 02:48:59;;;;;;;15.05;7.00;;;;;;;15.35;56.59;99307.69;5064141;27;20724;-69
2022/06/05 02:51:33;;;;;;;14.75;8.02;;;;;;;15.41;56.30;99300.91;5121151;27;20046;-67
2022/06/05 02:53:59;;;;;;;12.40;7.15;;;;;;;15.43;55.48;99302.44;5118361;27;20047;-65
2022/06/05 02:56:28;;;;;;;10.07;7.65;;;;;;;15.49;55.81;99298.31;5101487;27;20034;-63
2022/06/05 02:58:54;;;;;;;11.02;7.47;;;;;;;15.57;55.51;99302.00;5118834;27;20065;-65
2022/06/05 03:04:07;;;;;;;11.85;7.70;;;;;;;16.14;54.48;99307.16;5114967;27;20552;-72
2022/06/05 03:06:33;;;;;;;11.80;7.60;;;;;;;16.38;54.12;99301.13;5112231;27;20034;-75
2022/06/05 03:08:57;;;;;;;16.25;7.32;;;;;;;16.56;53.47;99307.34;5088703;27;20034;-74
2022/06/05 03:11:22;;;;;;;14.93;7.18;;;;;;;16.78;53.17;99298.81;5111237;27;20039;-72
2022/06/05 03:13:47;;;;;;;13.18;7.20;;;;;;;16.89;53.02;99285.09;5114891;27;20141;-72
2022/06/05 03:16:12;;;;;;;11.25;6.75;;;;;;;16.93;52.54;99294.50;5112173;27;20043;-72
2022/06/05 03:18:38;;;;;;;12.00;6.50;;;;;;;16.90;52.87;99291.31;5114419;27;20074;-71
2022/06/05 03:21:03;;;;;;;10.10;7.10;;;;;;;16.93;53.19;99293.69;5113393;27;20043;-73
2022/06/05 03:23:28;;;;;;;13.35;8.05;;;;;;;16.96;53.82;99287.97;5116176;27;20034;-72
2022/06/05 03:25:53;;;;;;;11.52;6.80;;;;;;;17.00;53.43;99279.44;5117053;27;20046;-72
2022/06/05 03:28:18;;;;;;;13.95;7.25;;;;;;;17.00;52.86;99290.19;5094357;27;20512;-71
2022/06/05 03:30:43;;;;;;;10.48;7.22;;;;;;;16.97;53.07;99285.13;5108440;27;20039;-70
2022/06/05 03:33:09;;;;;;;14.55;6.20;;;;;;;16.96;52.80;99291.50;5077942;27;20043;-71
2022/06/05 03:35:40;;;;;;;9.93;5.75;;;;;;;16.97;50.97;99293.22;5107223;27;20087;-72
2022/06/05 03:38:06;;;;;;;6.60;5.20;;;;;;;16.94;51.38;99285.44;5116901;27;20038;-71
2022/06/05 03:40:32;;;;;;;9.35;4.97;;;;;;;16.98;51.46;99273.34;5090268;27;20035;-72
2022/06/05 03:42:57;;;;;;;9.88;6.00;;;;;;;16.96;50.59;99275.34;5113003;27;20038;-68
2022/06/05 03:45:22;;;;;;;10.15;6.10;;;;;;;16.86;50.68;99277.31;5115978;27;20042;-68
2022/06/05 03:47:47;;;;;;;13.52;6.70;;;;;;;16.80;51.09;99282.50;5097566;27;20468;-69
2022/06/05 03:50:14;;;;;;;8.27;5.72;;;;;;;16.78;51.05;99281.81;5116147;27;20497;-68
2022/06/05 03:52:40;;;;;;;11.57;7.78;;;;;;;16.60;51.33;99279.94;5115835;27;20484;-69
2022/06/05 03:55:05;;;;;;;11.43;7.05;;;;;;;16.61;52.06;99302.31;5097430;27;20515;-70
2022/06/05 03:57:29;;;;;;;9.65;7.13;;;;;;;16.86;51.87;99298.00;5116151;27;20035;-69
2022/06/05 03:59:54;;;;;;;11.77;7.50;;;;;;;17.34;51.36;99292.06;5098109;27;20098;-68
2022/06/05 04:02:19;;;;;;;12.02;6.70;;;;;;;17.71;50.68;99280.97;5116514;27;20105;-68
2022/06/05 04:04:44;;;;;;;13.82;7.60;;;;;;;17.93;49.63;99290.31;5098534;27;20034;-68
2022/06/05 04:07:08;;;;;;;12.55;6.57;;;;;;;18.07;49.53;99286.94;5116519;27;20543;-68
2022/06/05 04:09:33;;;;;;;8.32;6.25;;;;;;;18.17;48.80;99279.56;5115941;27;20099;-71
2022/06/05 04:11:58;;;;;;;9.80;5.55;;;;;;;18.25;48.58;99279.56;5116764;27;20523;-70
2022/06/05 04:14:23;;;;;;;9.88;6.78;;;;;;;18.28;48.35;99275.69;5098466;27;20038;-71
2022/06/05 04:16:48;;;;;;;15.35;6.70;;;;;;;18.35;48.59;99290.19;5116130;27;20070;-73
2022/06/05 04:19:13;;;;;;;11.57;6.53;;;;;;;18.49;48.35;99301.16;5115719;27;20054;-72
2022/06/05 04:21:41;;;;;;;10.73;6.35;;;;;;;18.74;47.81;99311.97;5115211;27;20062;-71
2022/06/05 04:24:06;;;;;;;10.93;6.82;;;;;;;18.84;47.89;99308.09;5116130;27;20045;-71
2022/06/05 04:26:33;;;;;;;16.58;6.82;;;;;;;18.81;47.77;99310.31;5116376;27;20039;-71
2022/06/05 04:28:59;;;;;;;13.60;6.60;;;;;;;18.63;48.03;99309.63;5115395;27;20039;-73
2022/06/05 04:31:32;;;;;;;8.88;6.05;;;;;;;18.42;48.13;99313.63;5115654;27;20043;-71
2022/06/05 04:34:01;;;;;;;12.40;6.38;;;;;;;18.27;48.35;99323.41;5115999;27;20045;-72
2022/06/05 04:36:26;;;;;;;10.57;5.75;;;;;;;18.12;48.90;99317.81;5114696;27;20066;-71
2022/06/05 04:38:52;;;;;;;11.50;5.85;;;;;;;18.04;49.74;99319.66;5115629;27;20039;-71
2022/06/05 04:41:20;;;;;;;9.30;5.53;;;;;;;17.99;49.54;99311.19;5115835;27;20088;-70
2022/06/05 04:43:46;;;;;;;8.52;5.07;;;;;;;17.91;50.04;99319.28;5096600;27;20505;-72
2022/06/05 04:46:11;;;;;;;10.18;5.57;;;;;;;17.71;50.42;99316.03;5097391;27;20452;-71
2022/06/05 04:48:36;;;;;;;15.52;6.10;;;;;;;17.51;51.00;99323.47;5115291;27;20099;-71
2022/06/05 04:51:06;;;;;;;8.15;4.85;;;;;;;17.30;51.69;99348.13;5097391;27;20039;-71
2022/06/05 04:53:31;;;;;;;10.95;5.13;;;;;;;16.96;52.37;99361.53;5115701;27;20382;-72
2022/06/05 04:55:55;;;;;;;8.63;5.03;;;;;;;16.72;53.47;99360.47;5079718;27;20408;-71
2022/06/05 04:58:20;;;;;;;7.68;4.45;;;;;;;16.49;54.27;99363.63;5096671;27;20048;-70
2022/06/05 05:00:45;;;;;;;8.98;4.30;;;;;;;16.21;55.23;99356.63;5115042;27;20057;-71
2022/06/05 05:03:10;;;;;;;7.50;4.78;;;;;;;15.97;56.60;99357.19;5115629;27;20098;-71
2022/06/05 05:05:34;;;;;;;7.07;4.57;;;;;;;15.79;57.08;99351.81;5115160;27;20050;-72
2022/06/05 05:07:59;;;;;;;6.97;4.43;;;;;;;15.58;58.41;99352.03;5115590;27;20042;-71
2022/06/05 05:10:24;;;;;;;6.43;5.03;;;;;;;15.40;59.32;99353.78;5115433;27;20159;-71
2022/06/05 05:12:48;;;;;;;4.97;4.07;;;;;;;15.24;60.21;99357.06;5115010;27;20043;-70
2022/06/05 05:15:13;;;;;;;5.35;3.95;;;;;;;15.14;61.30;99366.13;5079620;27;20091;-72
2022/06/05 05:17:38;;;;;;;6.20;4.10;;;;;;;15.04;62.20;99373.38;5098983;27;20038;-71
2022/06/05 05:20:04;;;;;;;8.18;4.55;;;;;;;14.97;62.62;99364.22;5104023;27;20050;-75
2022/06/05 05:22:28;;;;;;;5.55;4.30;;;;;;;14.83;62.79;99379.78;5098471;27;20039;-75
2022/06/05 05:24:53;;;;;;;8.30;4.35;;;;;;;14.69;63.73;99376.66;5115759;27;20045;-73
2022/06/05 05:27:20;;;;;;;10.73;5.30;;;;;;;14.56;64.93;99382.31;5116400;27;20488;-73
2022/06/05 05:29:44;;;;;;;8.48;4.60;;;;;;;14.41;65.87;99375.69;5097854;27;20046;-73
2022/06/05 05:32:10;;;;;;;5.38;4.05;;;;;;;14.25;66.11;99375.34;5115850;27;20153;-73
2022/06/05 05:34:35;;;;;;;6.00;3.83;;;;;;;14.09;66.78;99371.41;5096868;27;20046;-68
2022/06/05 05:37:00;;;;;;;9.10;4.55;;;;;;;14.02;67.99;99364.03;5115189;27;20081;-67
2022/06/05 05:42:09;;;;;;;6.72;4.70;;;;;;;14.00;69.25;99323.94;5115265;27;20162;-71
2022/06/05 05:44:46;;;;;;;11.25;5.25;;;;;;;14.06;69.78;99328.78;5115148;27;20066;-68
2022/06/05 05:47:23;;;;;;;7.30;4.82;;;;;;;14.12;69.68;99314.81;5096394;27;20086;-69
2022/06/05 05:49:59;;;;;;;7.45;4.93;;;;;;;14.19;70.08;99325.81;5118603;27;20046;-69
2022/06/05 05:52:25;;;;;;;8.45;4.80;;;;;;;14.22;70.24;99333.56;5118454;27;20046;-68
2022/06/05 05:54:50;;;;;;;7.20;4.90;;;;;;;14.35;69.95;99333.28;5118538;27;20038;-72
2022/06/05 05:57:16;;;;;;;10.98;6.18;;;;;;;14.51;70.33;99329.09;5128992;27;20047;-71
2022/06/05 05:59:41;;;;;;;10.75;8.18;;;;;;;14.69;69.67;99331.91;5126463;27;20103;-72
2022/06/05 06:02:11;;;;;;;10.80;7.43;;;;;;;14.81;68.93;99317.34;5113446;27;20050;-75
2022/06/05 06:04:35;;;;;;;8.27;6.65;;;;;;;14.89;69.40;99313.94;5126261;27;20125;-72
2022/06/05 06:07:00;;;;;;;9.50;5.97;;;;;;;14.93;68.51;99299.22;5124672;27;20069;-72
2022/06/05 06:09:25;;;;;;;5.97;4.60;;;;;;;15.04;68.63;99298.19;5121646;27;20073;-74
2022/06/05 06:11:50;;;;;;;13.10;5.18;;;;;;;15.18;68.59;99301.28;5124082;27;20051;-72
2022/06/05 06:14:14;;;;;;;6.93;4.63;;;;;;;15.35;68.61;99299.63;5118539;27;20046;-71
2022/06/05 06:16:39;;;;;;;7.28;4.85;;;;;;;15.51;67.58;99290.94;5099670;27;20121;-70
2022/06/05 06:19:04;;;;;;;7.07;4.78;;;;;;;15.72;67.30;99293.41;5118361;27;20038;-68
2022/06/05 06:21:29;;;;;;;9.23;5.20;;;;;;;16.57;66.54;99295.59;5117875;27;20053;-69
2022/06/05 06:23:53;;;;;;;6.18;4.68;;;;;;;18.41;62.73;99298.44;5118000;27;20050;-69
2022/06/05 06:26:18;;;;;;;5.00;4.38;;;;;;;20.25;56.58;99292.84;5118126;27;20046;-70
2022/06/05 06:28:43;;;;;;;10.68;4.72;;;;;;;21.79;51.73;99304.91;5081910;27;20065;-70
2022/06/05 06:31:11;;;;;;;8.25;4.45;;;;;;;22.74;48.36;99302.00;5117670;27;20409;-70
2022/06/05 06:33:36;;;;;;;16.17;10.18;;;;;;;23.78;46.42;99313.84;5099484;27;20162;-71
2022/06/05 06:36:03;;;;;;;14.93;7.47;;;;;;;23.71;45.15;99318.41;5118027;27;20098;-71
2022/06/05 06:38:28;;;;;;;6.45;4.75;;;;;;;23.02;45.21;99323.81;5099713;27;20400;-70
2022/06/05 06:41:20;;;;;;;7.43;5.15;;;;;;;22.21;46.82;99325.94;5099696;27;20381;-72
2022/06/05 06:43:45;;;;;;;9.18;4.95;;;;;;;21.26;49.48;99323.19;5113907;27;20237;-70
2022/06/05 06:46:11;;;;;;;7.18;4.70;;;;;;;22.33;49.13;99312.69;5117806;27;20127;-70
2022/06/05 06:48:36;;;;;;;11.60;4.38;;;;;;;24.19;43.73;99311.91;5099369;27;20043;-70
2022/06/05 06:51:02;;;;;;;6.63;4.43;;;;;;;24.74;41.64;99320.00;5117997;27;20095;-72
2022/06/05 06:53:28;;;;;;;5.85;4.03;;;;;;;24.46;42.08;99321.03;5098187;27;20037;-69
2022/06/05 06:55:54;;;;;;;8.52;4.20;;;;;;;23.69;42.88;99315.06;5081918;27;20413;-70
2022/06/05 06:58:19;;;;;;;5.53;4.35;;;;;;;23.05;43.89;99313.38;5099290;27;20496;-71
2022/06/05 07:00:44;;;;;;;8.25;4.40;;;;;;;22.90;44.64;99320.78;5117307;27;20560;-72
2022/06/05 07:03:09;;;;;;;5.20;4.15;;;;;;;22.45;45.30;99316.59;5101358;27;20126;-70
2022/06/05 07:05:34;;;;;;;9.93;3.88;;;;;;;21.80;46.13;99327.47;5120907;27;20038;-69
2022/06/05 07:07:59;;;;;;;5.05;4.40;;;;;;;21.29;48.07;99324.69;5099777;27;20110;-71
2022/06/05 07:10:24;;;;;;;7.57;5.22;;;;;;;21.00;48.95;99320.88;5099346;27;20050;-72
2022/06/05 07:12:49;;;;;;;11.35;7.20;;;;;;;20.89;49.24;99329.44;5121724;27;20049;-69
2022/06/05 07:15:14;;;;;;;6.63;4.80;;;;;;;20.66;48.83;99325.91;5089750;27;20047;-68
2022/06/05 07:17:39;;;;;;;6.93;4.93;;;;;;;20.40;49.67;99323.59;5124682;27;20448;-71
2022/06/05 07:20:04;;;;;;;5.07;4.13;;;;;;;20.87;49.59;99325.25;5104645;27;20038;-69
2022/06/05 07:22:29;;;;;;;6.47;3.90;;;;;;;21.46;48.16;99328.88;5100339;27;20042;-70
2022/06/05 07:24:54;;;;;;;5.07;4.13;;;;;;;22.40;46.68;99316.31;5118511;27;20498;-70
2022/06/05 07:27:19;;;;;;;4.38;3.80;;;;;;;23.43;43.43;99321.16;5098504;27;20042;-69
2022/06/05 07:29:44;;;;;;;4.07;3.47;;;;;;;24.33;42.18;99318.28;5082481;27;20043;-69
2022/06/05 07:32:11;;;;;;;6.07;3.47;;;;;;;24.95;40.94;99320.66;5117085;27;20046;-69
2022/06/05 07:34:35;;;;;;;4.40;3.58;;;;;;;25.03;40.26;99327.81;5116838;27;20046;-70
2022/06/05 07:37:00;;;;;;;4.60;3.67;;;;;;;24.80;39.79;99320.03;5117896;27;20086;-69
2022/06/05 07:39:26;;;;;;;8.57;6.43;;;;;;;24.27;40.51;99318.28;5098014;27;20052;-69
2022/06/05 07:41:50;;;;;;;6.47;4.55;;;;;;;23.52;41.83;99326.28;5117173;27;20518;-70
2022/06/05 07:44:16;;;;;;;4.47;3.63;;;;;;;22.84;43.43;99315.28;5116820;27;20500;-69
2022/06/05 07:46:40;;;;;;;6.85;4.15;;;;;;;22.27;44.66;99316.16;5117283;27;20446;-69
2022/06/05 07:49:05;;;;;;;5.05;3.78;;;;;;;21.76;45.01;99326.19;5098732;27;20389;-71
2022/06/05 07:54:28;;;;;;;4.35;3.30;;;;;;;20.79;47.43;99333.44;5118955;27;20408;-72
2022/06/05 07:56:54;;;;;;;5.20;3.80;;;;;;;20.41;48.41;99325.28;5098321;27;20468;-72
2022/06/05 07:59:19;;;;;;;10.32;4.65;;;;;;;20.22;49.32;99326.53;5098666;27;20039;-71
2022/06/05 08:01:44;;;;;;;5.93;3.40;;;;;;;19.98;48.77;99323.16;5116781;27;20046;-72
2022/06/05 08:04:09;;;;;;;7.70;4.70;;;;;;;19.59;49.29;99334.81;5097948;27;20041;-71
2022/06/05 08:06:34;;;;;;;5.25;3.53;;;;;;;19.13;49.90;99326.47;5116849;27;20038;-71
2022/06/05 08:08:59;;;;;;;5.50;4.15;;;;;;;18.73;51.68;99337.31;5097439;27;20033;-70
2022/06/05 08:11:24;;;;;;;5.93;4.30;;;;;;;18.39;53.05;99330.19;5079811;27;20564;-69
2022/06/05 08:13:48;;;;;;;8.00;5.80;;;;;;;18.22;53.80;99333.84;5097409;27;20469;-69
2022/06/05 08:16:13;;;;;;;4.55;2.90;;;;;;;18.23;54.01;99334.69;5116895;27;20047;-71
2022/06/05 08:18:39;;;;;;;4.55;3.60;;;;;;;18.33;53.89;99335.38;5115778;27;20042;-71
2022/06/05 08:21:04;;;;;;;10.18;6.47;;;;;;;18.43;54.27;99336.06;5115471;27;20050;-71
2022/06/05 08:23:28;;;;;;;6.15;3.00;;;;;;;18.58;54.61;99339.00;5116029;27;20042;-71
2022/06/05 08:25:53;;;;;;;4.75;3.53;;;;;;;18.73;53.58;99343.56;5116158;27;20367;-73
2022/06/05 08:28:18;;;;;;;5.60;3.08;;;;;;;20.19;52.10;99347.72;5079920;27;20040;-70
2022/06/05 08:30:42;;;;;;;5.90;3.28;;;;;;;23.14;44.96;99338.53;5117762;27;20046;-71
2022/06/05 08:33:08;;;;;;;5.07;3.67;;;;;;;25.79;39.32;99340.94;5124958;27;20049;-70
2022/06/05 08:35:33;;;;;;;3.75;2.92;;;;;;;27.38;36.22;99337.03;5100513;27;20145;-70
2022/06/05 08:43:38;;;;;;;4.82;2.95;;;;;;;28.47;32.88;99332.59;5116338;27;20050;-72
2022/06/05 08:46:10;;;;;;;3.10;2.80;;;;;;;28.73;32.12;99340.47;5115997;27;20043;-72
2022/06/05 08:48:45;;;;;;;4.28;3.17;;;;;;;28.23;33.46;99328.94;5080198;27;20047;-72
2022/06/05 08:51:23;;;;;;;3.92;3.22;;;;;;;27.39;33.60;99332.41;5115473;27;20054;-72
2022/06/05 08:53:55;;;;;;;3.78;3.00;;;;;;;26.39;34.58;99326.84;5115532;27;20045;-72
2022/06/05 08:56:42;;;;;;;3.08;2.60;;;;;;;25.47;35.68;99326.31;5097398;27;20042;-72
2022/06/05 08:59:19;;;;;;;4.28;2.75;;;;;;;24.36;37.42;99325.19;5115859;27;20461;-72
2022/06/05 09:01:46;;;;;;;2.45;2.25;;;;;;;23.61;39.06;99328.81;5115948;27;20072;-72
2022/06/05 09:04:32;;;;;;;3.65;2.33;;;;;;;23.06;39.68;99322.38;5115484;27;20061;-72
2022/06/05 09:07:02;;;;;;;3.53;2.65;;;;;;;22.55;41.59;99322.53;5096910;27;20205;-71
2022/06/05 09:09:34;;;;;;;2.50;2.30;;;;;;;21.91;42.20;99325.13;5079593;27;20034;-71
2022/06/05 09:12:06;;;;;;;2.53;2.33;;;;;;;21.38;44.09;99326.28;5097103;27;20042;-72
2022/06/05 09:14:54;;;;;;;4.60;3.15;;;;;;;21.02;45.11;99328.81;5116049;27;20042;-70
2022/06/05 09:17:20;;;;;;;2.22;2.05;;;;;;;21.35;44.92;99324.78;5116282;27;20046;-71
2022/06/05 09:19:48;;;;;;;4.40;2.78;;;;;;;24.22;40.59;99324.31;5115183;27;20053;-71
2022/06/05 09:22:39;;;;;;;7.60;4.85;;;;;;;27.62;34.47;99318.91;5098226;27;20564;-72
2022/06/05 09:25:19;;;;;;;3.10;2.80;;;;;;;30.35;29.99;99326.13;5119667;27;20046;-73
2022/06/05 09:28:00;;;;;;;2.53;2.33;;;;;;;31.24;27.84;99335.47;5100394;27;20076;-71
2022/06/05 09:31:09;;;;;;;2.85;2.65;;;;;;;30.70;29.36;99331.50;5119642;27;20049;-71
2022/06/05 09:33:37;;;;;;;3.00;2.80;;;;;;;28.66;30.21;99331.50;5015558;28;20132;-73
2022/06/05 09:36:10;;;;;;;3.25;2.95;;;;;;;27.08;32.76;99334.16;4982832;28;20036;-73
2022/06/05 09:38:54;;;;;;;2.85;2.65;;;;;;;25.55;34.86;99334.25;5015888;28;20593;-71
2022/06/05 09:41:21;;;;;;;4.60;3.43;;;;;;;23.83;37.92;99335.84;4998961;28;20045;-72
2022/06/05 09:43:56;;;;;;;5.35;3.03;;;;;;;22.77;40.66;99348.69;5015804;28;20165;-71
2022/06/05 09:46:23;;;;;;;4.88;3.38;;;;;;;21.72;42.40;99342.84;5015713;28;20066;-72
2022/06/05 09:48:57;;;;;;;4.07;2.60;;;;;;;20.97;44.08;99333.97;5016020;28;20051;-74
2022/06/05 09:51:22;;;;;;;9.55;4.28;;;;;;;20.64;44.92;99344.25;5016354;28;20483;-73
2022/06/05 09:54:13;;;;;;;3.55;2.35;;;;;;;20.63;45.79;99332.56;5016238;28;20140;-72
2022/06/05 09:59:49;;;;;;;5.85;2.92;;;;;;;21.05;44.89;99338.44;5014186;28;20049;-73
2022/06/05 10:02:15;;;;;;;4.38;2.72;;;;;;;21.91;43.07;99335.13;4998721;28;20045;-73
2022/06/05 10:04:41;;;;;;;4.50;2.15;;;;;;;24.11;39.82;99319.44;4999020;28;20052;-72
2022/06/05 10:07:19;;;;;;;3.17;2.25;;;;;;;27.92;32.89;99326.34;5015224;28;20052;-73
2022/06/05 10:09:45;;;;;;;2.10;2.00;;;;;;;32.11;27.85;99325.41;5090448;27;20053;-73
2022/06/05 10:12:32;;;;;;;4.95;4.47;;;;;;;35.53;23.59;99333.47;5118494;27;20425;-72
2022/06/05 10:15:06;;;;;;;3.45;3.25;;;;;;;38.24;19.65;99342.47;5099863;27;20127;-73
2022/06/05 10:17:30;;;;;;;4.03;3.65;;;;;;;40.34;17.94;99345.91;5118296;27;20035;-72
2022/06/05 10:20:04;;;;;;;4.47;4.07;;;;;;;41.07;16.24;99336.38;5100119;27;20042;-71
2022/06/05 10:22:53;;;;;;;4.60;4.18;;;;;;;39.87;16.79;99335.97;5100708;27;20413;-72
2022/06/05 10:25:34;;;;;;;4.10;3.80;;;;;;;39.30;17.53;99343.66;4999181;28;20052;-72
2022/06/05 10:28:10;;;;;;;4.70;4.38;;;;;;;40.53;16.83;99340.16;5015693;28;20522;-73
2022/06/05 10:31:06;;;;;;;4.90;4.50;;;;;;;40.40;17.33;99339.06;5014656;28;20186;-72
2022/06/05 10:33:48;;;;;;;5.32;4.82;;;;;;;37.48;18.05;99332.97;4919824;28;20050;-73
2022/06/05 10:36:32;;;;;;;6.05;4.93;;;;;;;34.17;21.52;99314.72;4936794;28;20055;-71
2022/06/05 10:39:22;;;;;;;3.28;3.08;;;;;;;32.18;23.62;99321.66;4920222;28;20518;-73
2022/06/05 10:41:59;;;;;;;5.13;3.40;;;;;;;30.16;26.20;99314.44;4920098;28;20046;-71
2022/06/05 10:44:33;;;;;;;3.53;3.22;;;;;;;28.51;28.38;99300.91;4936261;28;20062;-73
2022/06/05 10:47:29;;;;;;;3.13;2.85;;;;;;;27.70;29.48;99302.16;4936867;28;20149;-72
2022/06/05 10:49:58;;;;;;;2.30;2.17;;;;;;;26.89;30.85;99301.44;4936563;28;20055;-71
2022/06/05 10:52:25;;;;;;;5.65;2.90;;;;;;;26.28;31.83;99297.47;4936102;28;20060;-72
2022/06/05 10:54:54;;;;;;;2.33;2.20;;;;;;;25.63;32.22;99299.41;4936006;28;20057;-71
2022/06/05 10:57:36;;;;;;;2.80;2.60;;;;;;;25.19;33.08;99296.53;4920154;28;20072;-72
2022/06/05 11:00:22;;;;;;;4.15;2.30;;;;;;;24.72;34.15;99295.66;4919813;28;20078;-73
2022/06/05 11:03:25;;;;;;;2.30;2.10;;;;;;;24.72;34.97;99306.56;5002654;28;20048;-70
2022/06/05 11:06:25;;;;;;;1.90;1.80;;;;;;;24.55;35.80;99294.41;5033444;28;20059;-72
2022/06/05 11:09:00;;;;;;;2.58;2.38;;;;;;;24.41;35.18;99299.00;5038183;27;20067;-72
2022/06/05 11:14:39;;;;;;;6.35;4.32;;;;;;;24.43;34.97;99296.06;5117402;27;20047;-72
2022/06/05 11:17:19;;;;;;;12.88;6.60;;;;;;;24.09;35.96;99289.69;5117873;27;20157;-72
2022/06/05 11:19:53;;;;;;;3.60;3.30;;;;;;;23.71;36.77;99296.63;5116937;27;20069;-73
2022/06/05 11:22:20;;;;;;;10.48;4.20;;;;;;;23.42;37.82;99295.84;5117402;27;20443;-72
2022/06/05 11:24:49;;;;;;;4.90;3.28;;;;;;;23.31;38.37;99296.41;5098468;27;20054;-72
2022/06/05 11:27:38;;;;;;;4.70;3.22;;;;;;;23.53;39.37;99294.47;5098612;27;20047;-72
2022/06/05 11:30:19;;;;;;;5.97;3.67;;;;;;;23.34;39.21;99303.31;5117312;27;20400;-72
2022/06/05 11:32:47;;;;;;;4.05;3.33;;;;;;;22.88;39.94;99303.84;5098858;27;20532;-69
2022/06/05 11:35:36;;;;;;;8.35;3.28;;;;;;;22.59;40.50;99299.34;5098152;27;20078;-71
2022/06/05 11:38:01;;;;;;;4.53;3.53;;;;;;;22.02;41.10;99300.22;5116872;27;20046;-70
2022/06/05 11:40:45;;;;;;;6.28;3.40;;;;;;;21.80;42.13;99297.63;5097905;27;20161;-70
2022/06/05 11:43:22;;;;;;;;;;;;;;;21.89;40.45;99297.34;5103130;27;20067;-72
2022/06/05 11:46:02;;;;;;;9.13;3.35;;;;;;;21.19;42.85;99297.84;5118651;27;19992;-70
2022/06/05 11:48:52;;;;;;;3.90;3.45;;;;;;;20.86;42.87;99294.59;5096988;27;20035;-71
2022/06/05 11:51:24;;;;;;;6.45;3.53;;;;;;;20.36;43.98;99291.63;5092231;27;20382;-67
2022/06/05 11:54:22;;;;;;;5.75;3.20;;;;;;;20.09;45.27;99293.00;5096164;27;20047;-65
2022/06/05 11:56:56;;;;;;;3.42;2.70;;;;;;;19.73;45.88;99276.44;5058184;27;20134;-65
2022/06/05 11:59:35;;;;;;;2.70;2.50;;;;;;;19.58;46.16;99274.47;5090467;27;20190;-65
2022/06/05 12:02:34;;;;;;;3.53;3.22;;;;;;;19.46;46.21;99277.72;5094827;27;20039;-66
2022/06/05 12:05:21;;;;;;;4.18;3.47;;;;;;;19.31;46.83;99271.34;5111693;27;20046;-65
2022/06/05 12:07:49;;;;;;;3.42;2.90;;;;;;;19.07;48.20;99270.41;5092365;27;20058;-65
2022/06/05 12:10:24;;;;;;;9.93;3.42;;;;;;;19.03;49.19;99268.22;5093532;27;20034;-65